Belfry, Montana
Current Conditions -  °F | °C
As of 12:55 AM on Thursday 23 Oct 2014 (Local Time) from KPOY Reporting Station
Clear Clear  
Wind Chill: 41°   Ceiling: Unl
Heat Index: 46°   Visibility: 10mi
Dew Point: 19°   Wind: 10mph
Humidity: 34%   Direction: 180°S
Pressure: 30.01"   Gusts: 20mph
Location:  45.14°N, 109.01°W
Report Text: KPOY 230655Z AUTO 18009G17KT 10SM CLR 08/M07 A3001 RMK AO2
Loading
Personal Weather Stations






























Interactive Weather Map
Tropical Storm Tracking
New forecast layout! Learn more

10-Day Weather Forecast

Advertisements
Track Severe Weather on mobile